Terminal Aerodrome Forecast
Issued by NWS Sioux Falls, SD

Home | Current Version | Previous Version | Graphics & Text | Print | Product List | Glossary On
Versions: 1 2 3 4 5 6 7 8 9 10 11 12 13 14 15 16 17 18
000
FTUS43 KFSD 221125
TAFHON
TAF
KHON 221125Z 2212/2312 16014G22KT P6SM BKN150
     FM221700 21010KT 5SM -RA SCT030 OVC060
     FM222000 27009KT P6SM BKN060
     FM230000 25005KT P6SM SKC=

USA.gov is the U.S. government's official web portal to all federal, state and local government web resources and services.